This is the latest recevied weather packets stored in our database for station/object VK5ALG-13. If no packets are shown the sender has not sent any weather packets the latest 10 day(s).
| Time | Temp. | Humidity | Pressure | Rain* | Wind** | Luminosity | Snow |
|---|---|---|---|---|---|---|---|
| 1778169631 | 13.89° C | 76% | 1030.5 hPa | 0 mm | - | - | - |
| 1778169049 | 13.89° C | 74% | 1030.4 hPa | 0 mm | - | - | - |
| 1778167258 | 13.89° C | 73% | 1030.6 hPa | 0 mm | - | - | - |
| 1778166634 | 13.89° C | 73% | 1030.6 hPa | 0 mm | - | - | - |
| 1778160638 | 12.78° C | 76% | 1030.8 hPa | 0 mm | - | - | - |
| 1778159431 | 12.78° C | 77% | 1030.7 hPa | 0 mm | - | - | - |
| 1778158827 | 12.78° C | 77% | 1030.9 hPa | 0 mm | - | - | - |
| 1778150418 | 13.33° C | 63% | 1031 hPa | 0 mm | - | - | - |
| 1778146234 | 13.33° C | 64% | 1030.8 hPa | 0 mm | - | - | - |
| 1778144423 | 13.89° C | 62% | 1030.6 hPa | 0 mm | - | - | - |
| 1778142632 | 13.33° C | 62% | 1030.4 hPa | 0 mm | - | - | - |
| 1778138427 | 15° C | 57% | 1030.3 hPa | 0 mm | - | - | - |
| 1778137823 | 15° C | 56% | 1030.3 hPa | 0 mm | - | - | - |
| 1778136033 | 16.11° C | 51% | 1030.2 hPa | 0 mm | - | - | - |
| 1778134825 | 15.56° C | 52% | 1030.1 hPa | 0 mm | - | - | - |
| 1778132451 | 16.11° C | 52% | 1030.3 hPa | 0 mm | - | - | - |
| 1778129433 | 17.22° C | 49% | 1030.2 hPa | 0 mm | - | - | - |
| 1778125228 | 16.11° C | 50% | 1030.4 hPa | 0 mm | - | - | - |
| 1778124020 | 17.78° C | 47% | 1030.7 hPa | 0 mm | - | - | - |
| 1778122833 | 16.67° C | 50% | 1030.7 hPa | 0 mm | - | - | - |
| 1778119836 | 16.11° C | 51% | 1031.1 hPa | 0 mm | - | - | - |
| 1778119231 | 16.11° C | 50% | 1031.3 hPa | 0 mm | - | - | - |
| 1778114423 | 16.11° C | 52% | 1030.8 hPa | 0 mm | - | - | - |
| 1778107823 | 13.89° C | 65% | 1030.3 hPa | 0 mm | - | - | - |
| 1778092231 | 11.11° C | 69% | 1027.6 hPa | 0 mm | - | - | - |
* Rain latest hour (hover to see other rain measurements)
** Current wind speed in m/s (hover to see current wind gust speed)